الصفحة الرئيسية
METAR-TAF:

METAR-TAF

مطار :

تومسك, روسيا

دائرة عرض: 56-23-12N, خط طول: 085-12-38E, ارتفاع: 182 متر

مراقبة الطقس الحالي

تاريخ ووقت الإصدار 38 دقيقة قبل الساعة 11:00UTC
ريح 10 عقدة من الغرب
درجة الحرارة 8°درجة مئوية
الرطوبة 36%
ضغط 1016 hPa
الرؤية 10 كم أو أكثر
الغيوم لا تقل 1500 م ولا وجود لمزنة ركامية السحاب الأسود

METAR: UNTT 241100Z 27005MPS CAVOK 08/M06 Q1016 R21/190055 NOSIG RMK QFE747

زمن: 18:38 (11:38 UTC)

توقعات

تاريخ ووقت الإصدار 38 دقيقة قبل الساعة 11:00UTC
التوقعات صالحة من24 الساعة 12 UTC إلى 24 الساعة 21 UTC
ريح 12 عقدة من الجنوب الغربي تتزايد حتى 23 عقدة
الرؤية 10 كم أو أكثر
غيوم متفرقة على ارتفاع 2000 قدم, مزنة ركامية.
مؤقت
من 24 الساعة 12 UTC إلى 24 الساعة 21 UTC
ريح 6 عقدة من الجنوب تتزايد حتى 16 عقدة

TAF: UNTT 241100Z 2412/2421 23006G12MPS 9999 SCT020CB TEMPO 2412/2421 18003G08MPS

أرصاد الطقس والتوقعات من أكثر من 4000 مطار (تقارير الطقس للمطار METAR والتنبؤ بالطقس بالمطارTAF).

المحطات المتاحة هي النقط الصفراء والحمراء على الخريطة.

حرك المؤشر فوق النقطة لمعرفة اسم المحطة.

ثم انقر لمعرفة أرصاد وتوقعات الطقس.

لتغيير الخارطة: اضغط على الأزرار الخضراء مع رمز الصليب الأسود للتكبير. على الزر الأخضر مع شرطة للتصغير، أو على الأسهم الخضراء للخرائط المجاورة.


METAR-TAF: